sensor_id;sensor_type;location;lat;lon;timestamp;temperature;humidity
15095;DHT22;7648;52.264;9.632;2023-05-07T00:00:29;11.30;99.90
15095;DHT22;7648;52.264;9.632;2023-05-07T00:04:31;11.30;99.90
15095;DHT22;7648;52.264;9.632;2023-05-07T00:08:38;11.20;99.90
15095;DHT22;7648;52.264;9.632;2023-05-07T00:12:40;11.20;99.90
15095;DHT22;7648;52.264;9.632;2023-05-07T00:16:42;11.20;99.90
15095;DHT22;7648;52.264;9.632;2023-05-07T00:20:44;11.20;99.90
15095;DHT22;7648;52.264;9.632;2023-05-07T00:24:47;11.10;99.90
15095;DHT22;7648;52.264;9.632;2023-05-07T00:28:49;11.10;99.90
15095;DHT22;7648;52.264;9.632;2023-05-07T00:32:51;11.10;99.90
15095;DHT22;7648;52.264;9.632;2023-05-07T00:36:53;11.10;99.90
15095;DHT22;7648;52.264;9.632;2023-05-07T00:40:56;11.10;99.90
15095;DHT22;7648;52.264;9.632;2023-05-07T00:44:58;11.10;99.90
15095;DHT22;7648;52.264;9.632;2023-05-07T00:49:00;11.10;99.90
15095;DHT22;7648;52.264;9.632;2023-05-07T00:53:03;11.00;99.90
15095;DHT22;7648;52.264;9.632;2023-05-07T00:57:07;11.00;99.90
15095;DHT22;7648;52.264;9.632;2023-05-07T01:01:10;11.00;99.90
15095;DHT22;7648;52.264;9.632;2023-05-07T01:05:14;11.00;99.90
15095;DHT22;7648;52.264;9.632;2023-05-07T01:09:18;11.00;99.90
15095;DHT22;7648;52.264;9.632;2023-05-07T01:13:23;11.00;99.90
15095;DHT22;7648;52.264;9.632;2023-05-07T01:17:25;11.00;99.90
15095;DHT22;7648;52.264;9.632;2023-05-07T01:21:32;11.00;99.90
15095;DHT22;7648;52.264;9.632;2023-05-07T01:25:37;10.90;99.90
15095;DHT22;7648;52.264;9.632;2023-05-07T01:29:40;10.90;99.90
15095;DHT22;7648;52.264;9.632;2023-05-07T01:33:43;10.90;99.90
15095;DHT22;7648;52.264;9.632;2023-05-07T01:37:46;10.80;99.90
15095;DHT22;7648;52.264;9.632;2023-05-07T01:41:50;10.80;99.90
15095;DHT22;7648;52.264;9.632;2023-05-07T01:45:52;10.80;99.90
15095;DHT22;7648;52.264;9.632;2023-05-07T01:49:55;10.70;99.90
15095;DHT22;7648;52.264;9.632;2023-05-07T01:53:57;10.70;99.90
15095;DHT22;7648;52.264;9.632;2023-05-07T01:58:01;10.70;99.90
15095;DHT22;7648;52.264;9.632;2023-05-07T02:02:02;10.70;99.90
15095;DHT22;7648;52.264;9.632;2023-05-07T02:06:06;10.70;99.90
15095;DHT22;7648;52.264;9.632;2023-05-07T02:10:12;10.70;99.90
15095;DHT22;7648;52.264;9.632;2023-05-07T02:14:15;10.70;99.90
15095;DHT22;7648;52.264;9.632;2023-05-07T02:18:17;10.70;99.90
15095;DHT22;7648;52.264;9.632;2023-05-07T02:22:19;10.70;99.90
15095;DHT22;7648;52.264;9.632;2023-05-07T02:26:21;10.70;99.90
15095;DHT22;7648;52.264;9.632;2023-05-07T02:30:25;10.70;99.90
15095;DHT22;7648;52.264;9.632;2023-05-07T02:34:29;10.70;99.90
15095;DHT22;7648;52.264;9.632;2023-05-07T02:38:31;10.70;99.90
15095;DHT22;7648;52.264;9.632;2023-05-07T02:42:33;10.70;99.90
15095;DHT22;7648;52.264;9.632;2023-05-07T02:46:37;10.70;99.90
15095;DHT22;7648;52.264;9.632;2023-05-07T02:50:43;10.70;99.90
15095;DHT22;7648;52.264;9.632;2023-05-07T02:54:47;10.60;99.90
15095;DHT22;7648;52.264;9.632;2023-05-07T02:58:49;10.60;99.90
15095;DHT22;7648;52.264;9.632;2023-05-07T03:02:53;10.60;99.90
15095;DHT22;7648;52.264;9.632;2023-05-07T03:06:56;10.60;99.90
15095;DHT22;7648;52.264;9.632;2023-05-07T03:10:58;10.60;99.90
15095;DHT22;7648;52.264;9.632;2023-05-07T03:15:00;10.60;99.90
15095;DHT22;7648;52.264;9.632;2023-05-07T03:19:04;10.60;99.90
15095;DHT22;7648;52.264;9.632;2023-05-07T03:23:06;10.60;99.90
15095;DHT22;7648;52.264;9.632;2023-05-07T03:27:08;10.60;99.90
15095;DHT22;7648;52.264;9.632;2023-05-07T03:31:11;10.60;99.90
15095;DHT22;7648;52.264;9.632;2023-05-07T03:35:14;10.60;99.90
15095;DHT22;7648;52.264;9.632;2023-05-07T03:39:16;10.60;99.90
15095;DHT22;7648;52.264;9.632;2023-05-07T03:43:18;10.50;99.90
15095;DHT22;7648;52.264;9.632;2023-05-07T03:47:26;10.50;99.90
15095;DHT22;7648;52.264;9.632;2023-05-07T03:51:30;10.50;99.90
15095;DHT22;7648;52.264;9.632;2023-05-07T03:55:32;10.50;99.90
15095;DHT22;7648;52.264;9.632;2023-05-07T03:59:34;10.50;99.90
15095;DHT22;7648;52.264;9.632;2023-05-07T04:03:37;10.50;99.90
15095;DHT22;7648;52.264;9.632;2023-05-07T04:07:40;10.50;99.90
15095;DHT22;7648;52.264;9.632;2023-05-07T04:11:43;10.40;99.90
15095;DHT22;7648;52.264;9.632;2023-05-07T04:15:46;10.40;99.90
15095;DHT22;7648;52.264;9.632;2023-05-07T04:19:51;10.40;99.90
15095;DHT22;7648;52.264;9.632;2023-05-07T04:23:56;10.40;99.90
15095;DHT22;7648;52.264;9.632;2023-05-07T04:27:58;10.40;99.90
15095;DHT22;7648;52.264;9.632;2023-05-07T04:32:02;10.30;99.90
15095;DHT22;7648;52.264;9.632;2023-05-07T04:36:04;10.30;99.90
15095;DHT22;7648;52.264;9.632;2023-05-07T04:40:12;10.30;99.90
15095;DHT22;7648;52.264;9.632;2023-05-07T04:44:15;10.30;99.90
15095;DHT22;7648;52.264;9.632;2023-05-07T04:48:18;10.30;99.90
15095;DHT22;7648;52.264;9.632;2023-05-07T04:52:22;10.40;99.90
15095;DHT22;7648;52.264;9.632;2023-05-07T04:56:27;10.40;99.90
15095;DHT22;7648;52.264;9.632;2023-05-07T05:00:29;10.40;99.90
15095;DHT22;7648;52.264;9.632;2023-05-07T05:04:32;10.30;99.90
15095;DHT22;7648;52.264;9.632;2023-05-07T05:08:34;10.40;99.90
15095;DHT22;7648;52.264;9.632;2023-05-07T05:12:39;10.30;99.90
15095;DHT22;7648;52.264;9.632;2023-05-07T05:16:41;10.40;99.90
15095;DHT22;7648;52.264;9.632;2023-05-07T05:20:43;10.40;99.90
15095;DHT22;7648;52.264;9.632;2023-05-07T05:24:46;10.40;99.90
15095;DHT22;7648;52.264;9.632;2023-05-07T05:28:49;10.40;99.90
15095;DHT22;7648;52.264;9.632;2023-05-07T05:32:54;10.40;99.90
15095;DHT22;7648;52.264;9.632;2023-05-07T05:36:56;10.50;99.90
15095;DHT22;7648;52.264;9.632;2023-05-07T05:40:58;10.50;99.90
15095;DHT22;7648;52.264;9.632;2023-05-07T05:45:02;10.50;99.90
15095;DHT22;7648;52.264;9.632;2023-05-07T05:49:06;10.50;99.90
15095;DHT22;7648;52.264;9.632;2023-05-07T05:53:09;10.50;99.90
15095;DHT22;7648;52.264;9.632;2023-05-07T05:57:11;10.40;99.90
15095;DHT22;7648;52.264;9.632;2023-05-07T06:01:15;10.50;99.90
15095;DHT22;7648;52.264;9.632;2023-05-07T06:05:17;10.50;99.90
15095;DHT22;7648;52.264;9.632;2023-05-07T06:09:20;10.50;99.90
15095;DHT22;7648;52.264;9.632;2023-05-07T06:13:22;10.50;99.90
15095;DHT22;7648;52.264;9.632;2023-05-07T06:17:27;10.60;99.90
15095;DHT22;7648;52.264;9.632;2023-05-07T06:21:29;10.60;99.90
15095;DHT22;7648;52.264;9.632;2023-05-07T06:25:31;10.70;99.90
15095;DHT22;7648;52.264;9.632;2023-05-07T06:29:33;10.70;99.90
15095;DHT22;7648;52.264;9.632;2023-05-07T06:33:38;10.80;99.90
15095;DHT22;7648;52.264;9.632;2023-05-07T06:37:41;10.80;99.90
15095;DHT22;7648;52.264;9.632;2023-05-07T06:41:48;10.90;99.90
15095;DHT22;7648;52.264;9.632;2023-05-07T06:45:58;11.00;99.90
15095;DHT22;7648;52.264;9.632;2023-05-07T06:50:03;11.20;99.90
15095;DHT22;7648;52.264;9.632;2023-05-07T06:54:07;11.30;99.90
15095;DHT22;7648;52.264;9.632;2023-05-07T06:58:12;11.40;99.90
15095;DHT22;7648;52.264;9.632;2023-05-07T07:02:14;11.50;99.90
15095;DHT22;7648;52.264;9.632;2023-05-07T07:06:18;11.60;99.90
15095;DHT22;7648;52.264;9.632;2023-05-07T07:10:21;11.60;99.90
15095;DHT22;7648;52.264;9.632;2023-05-07T07:14:25;11.60;99.90
15095;DHT22;7648;52.264;9.632;2023-05-07T07:18:28;11.60;99.90
15095;DHT22;7648;52.264;9.632;2023-05-07T07:22:33;11.60;99.90
15095;DHT22;7648;52.264;9.632;2023-05-07T07:26:35;11.60;99.90
15095;DHT22;7648;52.264;9.632;2023-05-07T07:30:38;11.60;99.90
15095;DHT22;7648;52.264;9.632;2023-05-07T07:34:42;11.60;99.90
15095;DHT22;7648;52.264;9.632;2023-05-07T07:38:45;11.60;99.90
15095;DHT22;7648;52.264;9.632;2023-05-07T07:42:49;11.70;99.90
15095;DHT22;7648;52.264;9.632;2023-05-07T07:46:51;11.80;99.90
15095;DHT22;7648;52.264;9.632;2023-05-07T07:50:59;11.90;99.90
15095;DHT22;7648;52.264;9.632;2023-05-07T07:55:04;11.90;99.90
15095;DHT22;7648;52.264;9.632;2023-05-07T07:59:07;12.00;99.90
15095;DHT22;7648;52.264;9.632;2023-05-07T08:03:12;12.00;99.90
15095;DHT22;7648;52.264;9.632;2023-05-07T08:07:20;12.00;99.90
15095;DHT22;7648;52.264;9.632;2023-05-07T08:11:25;12.00;99.90
15095;DHT22;7648;52.264;9.632;2023-05-07T08:15:28;12.00;99.90
15095;DHT22;7648;52.264;9.632;2023-05-07T08:19:31;12.00;99.90
15095;DHT22;7648;52.264;9.632;2023-05-07T08:23:34;12.00;99.90
15095;DHT22;7648;52.264;9.632;2023-05-07T08:27:37;12.10;99.90
15095;DHT22;7648;52.264;9.632;2023-05-07T08:31:39;12.10;99.90
15095;DHT22;7648;52.264;9.632;2023-05-07T08:35:41;12.20;99.90
15095;DHT22;7648;52.264;9.632;2023-05-07T08:39:45;12.20;99.90
15095;DHT22;7648;52.264;9.632;2023-05-07T08:43:58;12.20;99.90
15095;DHT22;7648;52.264;9.632;2023-05-07T08:48:02;12.20;99.90
15095;DHT22;7648;52.264;9.632;2023-05-07T08:52:09;12.20;99.90
15095;DHT22;7648;52.264;9.632;2023-05-07T08:56:14;12.20;99.90
15095;DHT22;7648;52.264;9.632;2023-05-07T09:00:18;12.20;99.90
15095;DHT22;7648;52.264;9.632;2023-05-07T09:04:23;12.10;99.90
15095;DHT22;7648;52.264;9.632;2023-05-07T09:08:27;12.20;99.90
15095;DHT22;7648;52.264;9.632;2023-05-07T09:12:32;12.20;99.90
15095;DHT22;7648;52.264;9.632;2023-05-07T09:16:38;12.30;99.90
15095;DHT22;7648;52.264;9.632;2023-05-07T09:20:41;12.30;99.90
15095;DHT22;7648;52.264;9.632;2023-05-07T09:24:48;12.30;99.90
15095;DHT22;7648;52.264;9.632;2023-05-07T09:28:51;12.40;99.90
15095;DHT22;7648;52.264;9.632;2023-05-07T09:32:57;12.60;99.90
15095;DHT22;7648;52.264;9.632;2023-05-07T09:37:01;12.70;99.90
15095;DHT22;7648;52.264;9.632;2023-05-07T09:41:06;12.70;99.90
15095;DHT22;7648;52.264;9.632;2023-05-07T09:45:14;12.80;99.90
15095;DHT22;7648;52.264;9.632;2023-05-07T09:49:21;12.80;99.90
15095;DHT22;7648;52.264;9.632;2023-05-07T09:53:27;12.90;99.90
15095;DHT22;7648;52.264;9.632;2023-05-07T09:57:32;13.00;99.90
15095;DHT22;7648;52.264;9.632;2023-05-07T10:01:38;13.00;99.90
15095;DHT22;7648;52.264;9.632;2023-05-07T10:05:44;13.10;99.90
15095;DHT22;7648;52.264;9.632;2023-05-07T10:09:49;13.20;99.90
15095;DHT22;7648;52.264;9.632;2023-05-07T10:13:59;13.20;99.90
15095;DHT22;7648;52.264;9.632;2023-05-07T10:18:06;13.30;99.90
15095;DHT22;7648;52.264;9.632;2023-05-07T10:22:13;13.40;99.90
15095;DHT22;7648;52.264;9.632;2023-05-07T10:26:21;13.50;99.90
15095;DHT22;7648;52.264;9.632;2023-05-07T10:30:32;13.60;99.90
15095;DHT22;7648;52.264;9.632;2023-05-07T10:34:42;13.70;99.90
15095;DHT22;7648;52.264;9.632;2023-05-07T10:38:47;13.70;99.90
15095;DHT22;7648;52.264;9.632;2023-05-07T10:42:55;13.70;99.90
15095;DHT22;7648;52.264;9.632;2023-05-07T10:47:08;13.80;99.90
15095;DHT22;7648;52.264;9.632;2023-05-07T10:51:21;13.80;99.90
15095;DHT22;7648;52.264;9.632;2023-05-07T10:55:31;13.90;99.90
15095;DHT22;7648;52.264;9.632;2023-05-07T10:59:45;13.90;99.90
15095;DHT22;7648;52.264;9.632;2023-05-07T11:04:15;14.10;99.90
15095;DHT22;7648;52.264;9.632;2023-05-07T11:08:26;14.10;99.90
15095;DHT22;7648;52.264;9.632;2023-05-07T11:12:53;14.20;99.90
15095;DHT22;7648;52.264;9.632;2023-05-07T11:17:02;14.40;99.90
15095;DHT22;7648;52.264;9.632;2023-05-07T11:21:06;14.70;99.90
15095;DHT22;7648;52.264;9.632;2023-05-07T11:25:17;14.80;99.90
15095;DHT22;7648;52.264;9.632;2023-05-07T11:29:22;14.90;99.90
15095;DHT22;7648;52.264;9.632;2023-05-07T11:33:30;15.10;99.90
15095;DHT22;7648;52.264;9.632;2023-05-07T11:37:36;15.50;99.90
15095;DHT22;7648;52.264;9.632;2023-05-07T11:41:39;15.80;99.90
15095;DHT22;7648;52.264;9.632;2023-05-07T11:45:44;15.80;99.90
15095;DHT22;7648;52.264;9.632;2023-05-07T11:49:47;15.80;99.90
15095;DHT22;7648;52.264;9.632;2023-05-07T11:53:50;15.90;99.90
15095;DHT22;7648;52.264;9.632;2023-05-07T11:57:52;16.00;99.90
15095;DHT22;7648;52.264;9.632;2023-05-07T12:01:57;16.10;99.90
15095;DHT22;7648;52.264;9.632;2023-05-07T12:06:00;15.90;99.90
15095;DHT22;7648;52.264;9.632;2023-05-07T12:10:04;15.90;99.90
15095;DHT22;7648;52.264;9.632;2023-05-07T12:14:07;15.80;99.90
15095;DHT22;7648;52.264;9.632;2023-05-07T12:18:11;15.70;99.90
15095;DHT22;7648;52.264;9.632;2023-05-07T12:22:13;15.70;99.90
15095;DHT22;7648;52.264;9.632;2023-05-07T12:26:15;15.60;99.90
15095;DHT22;7648;52.264;9.632;2023-05-07T12:30:18;15.60;99.90
15095;DHT22;7648;52.264;9.632;2023-05-07T12:34:22;15.60;99.90
15095;DHT22;7648;52.264;9.632;2023-05-07T12:38:25;15.70;99.90
15095;DHT22;7648;52.264;9.632;2023-05-07T12:42:33;15.90;99.90
15095;DHT22;7648;52.264;9.632;2023-05-07T12:46:38;15.90;99.90
15095;DHT22;7648;52.264;9.632;2023-05-07T12:50:42;16.10;99.90
15095;DHT22;7648;52.264;9.632;2023-05-07T12:54:44;16.30;99.90
15095;DHT22;7648;52.264;9.632;2023-05-07T12:58:48;16.40;99.90
15095;DHT22;7648;52.264;9.632;2023-05-07T13:02:50;16.60;99.90
15095;DHT22;7648;52.264;9.632;2023-05-07T13:06:54;16.80;99.90
15095;DHT22;7648;52.264;9.632;2023-05-07T13:10:58;16.90;99.90
15095;DHT22;7648;52.264;9.632;2023-05-07T13:15:01;17.20;99.90
15095;DHT22;7648;52.264;9.632;2023-05-07T13:19:03;17.90;99.90
15095;DHT22;7648;52.264;9.632;2023-05-07T13:23:07;18.40;99.90
15095;DHT22;7648;52.264;9.632;2023-05-07T13:27:09;18.30;99.90
15095;DHT22;7648;52.264;9.632;2023-05-07T13:31:11;18.20;99.90
15095;DHT22;7648;52.264;9.632;2023-05-07T13:35:14;17.90;99.90
15095;DHT22;7648;52.264;9.632;2023-05-07T13:39:20;17.70;99.90
15095;DHT22;7648;52.264;9.632;2023-05-07T13:43:24;17.80;99.90
15095;DHT22;7648;52.264;9.632;2023-05-07T13:47:26;18.00;99.90
15095;DHT22;7648;52.264;9.632;2023-05-07T13:51:28;18.20;99.90
15095;DHT22;7648;52.264;9.632;2023-05-07T13:55:31;18.10;99.90
15095;DHT22;7648;52.264;9.632;2023-05-07T13:59:33;17.90;99.90
15095;DHT22;7648;52.264;9.632;2023-05-07T14:03:35;18.00;99.90
15095;DHT22;7648;52.264;9.632;2023-05-07T14:07:40;18.30;99.90
15095;DHT22;7648;52.264;9.632;2023-05-07T14:11:43;18.40;99.90
15095;DHT22;7648;52.264;9.632;2023-05-07T14:15:45;18.30;99.90
15095;DHT22;7648;52.264;9.632;2023-05-07T14:19:48;18.40;99.90
15095;DHT22;7648;52.264;9.632;2023-05-07T14:23:51;18.50;99.90
15095;DHT22;7648;52.264;9.632;2023-05-07T14:27:55;18.60;99.90
15095;DHT22;7648;52.264;9.632;2023-05-07T14:31:57;18.60;99.90
15095;DHT22;7648;52.264;9.632;2023-05-07T14:35:59;18.70;99.90
15095;DHT22;7648;52.264;9.632;2023-05-07T14:40:02;18.80;99.90
15095;DHT22;7648;52.264;9.632;2023-05-07T14:44:05;18.70;99.90
15095;DHT22;7648;52.264;9.632;2023-05-07T14:48:07;18.80;99.90
15095;DHT22;7648;52.264;9.632;2023-05-07T14:52:13;18.90;99.90
15095;DHT22;7648;52.264;9.632;2023-05-07T14:56:15;19.00;99.90
15095;DHT22;7648;52.264;9.632;2023-05-07T15:00:19;19.30;99.90
15095;DHT22;7648;52.264;9.632;2023-05-07T15:04:21;19.60;99.90
15095;DHT22;7648;52.264;9.632;2023-05-07T15:08:23;19.60;99.90
15095;DHT22;7648;52.264;9.632;2023-05-07T15:12:25;19.60;99.90
15095;DHT22;7648;52.264;9.632;2023-05-07T15:16:28;19.80;99.90
15095;DHT22;7648;52.264;9.632;2023-05-07T15:20:30;19.80;99.90
15095;DHT22;7648;52.264;9.632;2023-05-07T15:24:32;20.00;99.90
15095;DHT22;7648;52.264;9.632;2023-05-07T15:28:34;19.90;99.90
15095;DHT22;7648;52.264;9.632;2023-05-07T15:32:37;19.80;99.90
15095;DHT22;7648;52.264;9.632;2023-05-07T15:36:39;19.60;99.90
15095;DHT22;7648;52.264;9.632;2023-05-07T15:40:41;19.40;99.90
15095;DHT22;7648;52.264;9.632;2023-05-07T15:44:43;19.20;99.90
15095;DHT22;7648;52.264;9.632;2023-05-07T15:48:46;19.40;99.90
15095;DHT22;7648;52.264;9.632;2023-05-07T15:52:48;19.30;99.90
15095;DHT22;7648;52.264;9.632;2023-05-07T15:56:50;19.30;99.90
15095;DHT22;7648;52.264;9.632;2023-05-07T16:00:52;19.20;99.90
15095;DHT22;7648;52.264;9.632;2023-05-07T16:04:55;18.90;99.90
15095;DHT22;7648;52.264;9.632;2023-05-07T16:08:57;18.80;99.90
15095;DHT22;7648;52.264;9.632;2023-05-07T16:12:59;18.70;99.90
15095;DHT22;7648;52.264;9.632;2023-05-07T16:17:02;18.80;99.90
15095;DHT22;7648;52.264;9.632;2023-05-07T16:21:05;18.80;99.90
15095;DHT22;7648;52.264;9.632;2023-05-07T16:25:08;18.70;99.90
15095;DHT22;7648;52.264;9.632;2023-05-07T16:29:10;18.50;99.90
15095;DHT22;7648;52.264;9.632;2023-05-07T16:33:12;18.50;99.90
15095;DHT22;7648;52.264;9.632;2023-05-07T16:37:15;18.50;99.90
15095;DHT22;7648;52.264;9.632;2023-05-07T16:41:17;18.50;99.90
15095;DHT22;7648;52.264;9.632;2023-05-07T16:45:19;18.30;99.90
15095;DHT22;7648;52.264;9.632;2023-05-07T16:49:21;17.90;99.90
15095;DHT22;7648;52.264;9.632;2023-05-07T16:53:24;17.40;99.90
15095;DHT22;7648;52.264;9.632;2023-05-07T16:57:26;16.90;99.90
15095;DHT22;7648;52.264;9.632;2023-05-07T17:01:28;16.50;99.90
15095;DHT22;7648;52.264;9.632;2023-05-07T17:05:31;16.20;99.90
15095;DHT22;7648;52.264;9.632;2023-05-07T17:09:35;16.00;99.90
15095;DHT22;7648;52.264;9.632;2023-05-07T17:13:37;15.80;99.90
15095;DHT22;7648;52.264;9.632;2023-05-07T17:17:39;15.70;99.90
15095;DHT22;7648;52.264;9.632;2023-05-07T17:21:41;15.60;99.90
15095;DHT22;7648;52.264;9.632;2023-05-07T17:25:44;15.50;99.90
15095;DHT22;7648;52.264;9.632;2023-05-07T17:29:48;15.50;99.90
15095;DHT22;7648;52.264;9.632;2023-05-07T17:33:50;15.40;99.90
15095;DHT22;7648;52.264;9.632;2023-05-07T17:37:51;15.20;99.90
15095;DHT22;7648;52.264;9.632;2023-05-07T17:41:55;15.00;99.90
15095;DHT22;7648;52.264;9.632;2023-05-07T17:45:57;14.90;99.90
15095;DHT22;7648;52.264;9.632;2023-05-07T17:49:58;14.70;99.90
15095;DHT22;7648;52.264;9.632;2023-05-07T17:54:02;14.40;99.90
15095;DHT22;7648;52.264;9.632;2023-05-07T17:58:05;14.20;99.90
15095;DHT22;7648;52.264;9.632;2023-05-07T18:02:09;14.10;99.90
15095;DHT22;7648;52.264;9.632;2023-05-07T18:06:11;13.90;99.90
15095;DHT22;7648;52.264;9.632;2023-05-07T18:10:18;13.80;99.90
15095;DHT22;7648;52.264;9.632;2023-05-07T18:14:22;13.60;99.90
15095;DHT22;7648;52.264;9.632;2023-05-07T18:18:25;13.40;99.90
15095;DHT22;7648;52.264;9.632;2023-05-07T18:22:30;13.30;99.90
15095;DHT22;7648;52.264;9.632;2023-05-07T18:26:33;13.30;99.90
15095;DHT22;7648;52.264;9.632;2023-05-07T18:30:36;13.20;99.90
15095;DHT22;7648;52.264;9.632;2023-05-07T18:34:38;13.10;99.90
15095;DHT22;7648;52.264;9.632;2023-05-07T18:38:40;12.90;99.90
15095;DHT22;7648;52.264;9.632;2023-05-07T18:42:43;12.80;99.90
15095;DHT22;7648;52.264;9.632;2023-05-07T18:46:46;12.70;99.90
15095;DHT22;7648;52.264;9.632;2023-05-07T18:50:48;12.60;99.90
15095;DHT22;7648;52.264;9.632;2023-05-07T18:54:50;12.50;99.90
15095;DHT22;7648;52.264;9.632;2023-05-07T18:58:51;12.50;99.90
15095;DHT22;7648;52.264;9.632;2023-05-07T19:02:55;12.40;99.90
15095;DHT22;7648;52.264;9.632;2023-05-07T19:06:56;12.30;99.90
15095;DHT22;7648;52.264;9.632;2023-05-07T19:10:58;12.30;99.90
15095;DHT22;7648;52.264;9.632;2023-05-07T19:15:00;12.20;99.90
15095;DHT22;7648;52.264;9.632;2023-05-07T19:19:03;12.10;99.90
15095;DHT22;7648;52.264;9.632;2023-05-07T19:23:06;12.00;99.90
15095;DHT22;7648;52.264;9.632;2023-05-07T19:27:09;12.00;99.90
15095;DHT22;7648;52.264;9.632;2023-05-07T19:31:17;11.90;99.90
15095;DHT22;7648;52.264;9.632;2023-05-07T19:35:21;11.80;99.90
15095;DHT22;7648;52.264;9.632;2023-05-07T19:39:22;11.70;99.90
15095;DHT22;7648;52.264;9.632;2023-05-07T19:43:25;11.60;99.90
15095;DHT22;7648;52.264;9.632;2023-05-07T19:47:26;11.60;99.90
15095;DHT22;7648;52.264;9.632;2023-05-07T19:51:30;11.50;99.90
15095;DHT22;7648;52.264;9.632;2023-05-07T19:55:32;11.50;99.90
15095;DHT22;7648;52.264;9.632;2023-05-07T19:59:34;11.40;99.90
15095;DHT22;7648;52.264;9.632;2023-05-07T20:03:36;11.30;99.90
15095;DHT22;7648;52.264;9.632;2023-05-07T20:07:39;11.30;99.90
15095;DHT22;7648;52.264;9.632;2023-05-07T20:11:41;11.20;99.90
15095;DHT22;7648;52.264;9.632;2023-05-07T20:15:43;11.10;99.90
15095;DHT22;7648;52.264;9.632;2023-05-07T20:19:45;11.10;99.90
15095;DHT22;7648;52.264;9.632;2023-05-07T20:23:48;11.00;99.90
15095;DHT22;7648;52.264;9.632;2023-05-07T20:27:51;11.00;99.90
15095;DHT22;7648;52.264;9.632;2023-05-07T20:31:53;11.00;99.90
15095;DHT22;7648;52.264;9.632;2023-05-07T20:35:56;10.90;99.90
15095;DHT22;7648;52.264;9.632;2023-05-07T20:40:00;10.90;99.90
15095;DHT22;7648;52.264;9.632;2023-05-07T20:44:02;10.90;99.90
15095;DHT22;7648;52.264;9.632;2023-05-07T20:48:04;10.90;99.90
15095;DHT22;7648;52.264;9.632;2023-05-07T20:52:06;10.90;99.90
15095;DHT22;7648;52.264;9.632;2023-05-07T20:56:10;10.80;99.90
15095;DHT22;7648;52.264;9.632;2023-05-07T21:00:12;10.80;99.90
15095;DHT22;7648;52.264;9.632;2023-05-07T21:04:15;10.80;99.90
15095;DHT22;7648;52.264;9.632;2023-05-07T21:08:17;10.80;99.90
15095;DHT22;7648;52.264;9.632;2023-05-07T21:12:20;10.70;99.90
15095;DHT22;7648;52.264;9.632;2023-05-07T21:16:22;10.70;99.90
15095;DHT22;7648;52.264;9.632;2023-05-07T21:20:24;10.60;99.90
15095;DHT22;7648;52.264;9.632;2023-05-07T21:24:26;10.60;99.90
15095;DHT22;7648;52.264;9.632;2023-05-07T21:28:29;10.50;99.90
15095;DHT22;7648;52.264;9.632;2023-05-07T21:32:31;10.50;99.90
15095;DHT22;7648;52.264;9.632;2023-05-07T21:36:33;10.50;99.90
15095;DHT22;7648;52.264;9.632;2023-05-07T21:40:35;10.50;99.90
15095;DHT22;7648;52.264;9.632;2023-05-07T21:44:38;10.40;99.90
15095;DHT22;7648;52.264;9.632;2023-05-07T21:48:40;10.40;99.90
15095;DHT22;7648;52.264;9.632;2023-05-07T21:52:42;10.40;99.90
15095;DHT22;7648;52.264;9.632;2023-05-07T21:56:44;10.30;99.90
15095;DHT22;7648;52.264;9.632;2023-05-07T22:00:47;10.20;99.90
15095;DHT22;7648;52.264;9.632;2023-05-07T22:04:49;10.20;99.90
15095;DHT22;7648;52.264;9.632;2023-05-07T22:08:51;10.20;99.90
15095;DHT22;7648;52.264;9.632;2023-05-07T22:12:53;10.10;99.90
15095;DHT22;7648;52.264;9.632;2023-05-07T22:16:56;10.10;99.90
15095;DHT22;7648;52.264;9.632;2023-05-07T22:20:58;10.10;99.90
15095;DHT22;7648;52.264;9.632;2023-05-07T22:25:00;10.00;99.90
15095;DHT22;7648;52.264;9.632;2023-05-07T22:29:02;9.90;99.90
15095;DHT22;7648;52.264;9.632;2023-05-07T22:33:05;9.90;99.90
15095;DHT22;7648;52.264;9.632;2023-05-07T22:37:07;9.80;99.90
15095;DHT22;7648;52.264;9.632;2023-05-07T22:41:09;9.80;99.90
15095;DHT22;7648;52.264;9.632;2023-05-07T22:45:11;9.70;99.90
15095;DHT22;7648;52.264;9.632;2023-05-07T22:49:14;9.70;99.90
15095;DHT22;7648;52.264;9.632;2023-05-07T22:53:16;9.60;99.90
15095;DHT22;7648;52.264;9.632;2023-05-07T22:57:17;9.60;99.90
15095;DHT22;7648;52.264;9.632;2023-05-07T23:01:19;9.60;99.90
15095;DHT22;7648;52.264;9.632;2023-05-07T23:05:23;9.50;99.90
15095;DHT22;7648;52.264;9.632;2023-05-07T23:09:25;9.50;99.90
15095;DHT22;7648;52.264;9.632;2023-05-07T23:13:26;9.50;99.90
15095;DHT22;7648;52.264;9.632;2023-05-07T23:17:28;9.50;99.90
15095;DHT22;7648;52.264;9.632;2023-05-07T23:21:31;9.40;99.90
15095;DHT22;7648;52.264;9.632;2023-05-07T23:25:33;9.40;99.90
15095;DHT22;7648;52.264;9.632;2023-05-07T23:29:35;9.40;99.90
15095;DHT22;7648;52.264;9.632;2023-05-07T23:33:37;9.40;99.90
15095;DHT22;7648;52.264;9.632;2023-05-07T23:37:41;9.30;99.90
15095;DHT22;7648;52.264;9.632;2023-05-07T23:41:43;9.30;99.90
15095;DHT22;7648;52.264;9.632;2023-05-07T23:45:45;9.30;99.90
15095;DHT22;7648;52.264;9.632;2023-05-07T23:49:47;9.30;99.90
15095;DHT22;7648;52.264;9.632;2023-05-07T23:53:50;9.20;99.90
15095;DHT22;7648;52.264;9.632;2023-05-07T23:57:52;9.20;99.90
